Terminal Aerodrome Forecast
Issued by NWS

Home | Current Version | Previous Version | Text Only | Print | Product List | Glossary On
Versions: 1 2 3 4 5 6 7 8 9 10 11 12
000
FTUS45 KMSO 061720
TAFSMN
TAF
KSMN 061720Z 0618/0718 36010KT P6SM VCSH BKN060 BKN090
     FM062200 02015G20KT P6SM VCSH BKN060 BKN090
     FM070400 10008KT P6SM BKN100
      AMD LTD TO CLD VIS AND WIND=

USA.gov is the U.S. government's official web portal to all federal, state and local government web resources and services.